createdAt,value
2022-12-11T00:01:43.205Z,11.60
2022-12-11T00:04:11.316Z,11.00
2022-12-11T00:06:39.414Z,11.90
2022-12-11T00:09:07.521Z,11.70
2022-12-11T00:11:37.315Z,10.90
2022-12-11T00:14:05.233Z,10.90
2022-12-11T00:16:34.873Z,10.90
2022-12-11T00:19:02.809Z,10.10
2022-12-11T00:21:33.129Z,10.10
2022-12-11T00:24:01.350Z,10.90
2022-12-11T00:26:29.414Z,10.70
2022-12-11T00:28:59.519Z,9.90
2022-12-11T00:31:27.731Z,9.80
2022-12-11T00:33:57.202Z,9.50
2022-12-11T00:36:28.449Z,9.90
2022-12-11T00:38:58.253Z,10.40
2022-12-11T00:41:26.351Z,11.40
2022-12-11T00:43:54.432Z,9.40
2022-12-11T00:46:22.525Z,10.20
2022-12-11T00:48:52.285Z,10.50
2022-12-11T00:51:20.521Z,10.30
2022-12-11T00:53:48.688Z,10.00
2022-12-11T00:56:21.154Z,9.90
2022-12-11T00:58:51.113Z,10.60
2022-12-11T01:01:22.704Z,11.30
2022-12-11T01:03:53.422Z,10.70
2022-12-11T01:06:26.557Z,10.10
2022-12-11T01:09:15.705Z,8.90
2022-12-11T01:11:45.772Z,7.90
2022-12-11T01:14:15.567Z,8.00
2022-12-11T01:16:43.695Z,7.20
2022-12-11T01:19:13.249Z,7.30
2022-12-11T01:21:43.173Z,7.50
2022-12-11T01:24:11.433Z,7.90
2022-12-11T01:26:39.524Z,7.50
2022-12-11T01:29:07.429Z,7.10
2022-12-11T01:31:35.544Z,8.20
2022-12-11T01:34:03.445Z,6.90
2022-12-11T01:36:33.168Z,7.00
2022-12-11T01:39:02.901Z,7.60
2022-12-11T01:41:32.573Z,7.10
2022-12-11T01:44:03.972Z,6.70
2022-12-11T01:46:36.263Z,6.40
2022-12-11T01:49:10.592Z,7.60
2022-12-11T01:51:49.723Z,7.80
2022-12-11T01:54:22.042Z,6.40
2022-12-11T01:56:55.458Z,6.50
2022-12-11T01:59:29.301Z,6.30
2022-12-11T02:02:06.442Z,6.70
2022-12-11T02:04:38.326Z,6.40
2022-12-11T02:07:08.340Z,6.80
2022-12-11T02:09:41.298Z,6.50
2022-12-11T02:12:31.314Z,6.20
2022-12-11T02:15:23.563Z,6.60
2022-12-11T02:18:20.871Z,6.50
2022-12-11T02:21:08.580Z,6.50
2022-12-11T02:24:35.517Z,7.60
2022-12-11T02:27:25.263Z,6.40
2022-12-11T02:30:08.359Z,6.60
2022-12-11T02:32:55.726Z,6.00
2022-12-11T02:35:39.704Z,7.00
2022-12-11T02:41:00.411Z,6.80
2022-12-11T02:43:34.346Z,6.20
2022-12-11T02:46:06.457Z,6.80
2022-12-11T02:48:37.465Z,6.90
2022-12-11T02:51:09.162Z,7.40
2022-12-11T02:53:41.694Z,6.60
2022-12-11T02:56:25.497Z,7.10
2022-12-11T02:59:01.361Z,6.60
2022-12-11T03:01:29.289Z,6.40
2022-12-11T03:04:00.031Z,7.20
2022-12-11T03:06:44.433Z,6.80
2022-12-11T03:09:14.291Z,6.40
2022-12-11T03:11:42.099Z,7.20
2022-12-11T03:14:11.969Z,7.20
2022-12-11T03:16:56.734Z,6.40
2022-12-11T03:19:36.785Z,6.40
2022-12-11T03:22:17.551Z,6.80
2022-12-11T03:25:09.034Z,7.40
2022-12-11T03:27:48.612Z,7.70
2022-12-11T03:30:20.762Z,7.70
2022-12-11T03:33:08.716Z,6.80
2022-12-11T03:35:42.716Z,6.80
2022-12-11T03:38:20.240Z,6.40
2022-12-11T03:40:56.571Z,6.50
2022-12-11T03:43:27.214Z,8.00
2022-12-11T03:45:58.508Z,7.30
2022-12-11T03:48:33.229Z,7.80
2022-12-11T03:51:06.744Z,7.90
2022-12-11T03:53:38.619Z,7.60
2022-12-11T03:56:12.112Z,7.40
2022-12-11T03:58:42.159Z,7.40
2022-12-11T04:01:12.653Z,7.90
2022-12-11T04:03:41.220Z,7.40
2022-12-11T04:06:09.143Z,8.00
2022-12-11T04:08:37.177Z,7.20
2022-12-11T04:11:24.229Z,6.80
2022-12-11T04:14:13.176Z,7.60
2022-12-11T04:16:41.460Z,7.80
2022-12-11T04:19:30.925Z,7.20
2022-12-11T04:22:18.058Z,8.30
2022-12-11T04:24:50.291Z,7.20
2022-12-11T04:27:39.830Z,7.10
2022-12-11T04:30:13.741Z,8.00
2022-12-11T04:32:43.612Z,7.70
2022-12-11T04:35:14.449Z,7.80
2022-12-11T04:37:44.671Z,8.10
2022-12-11T04:40:17.926Z,8.60
2022-12-11T04:42:48.134Z,8.40
2022-12-11T04:45:15.992Z,8.30
2022-12-11T04:47:44.037Z,8.70
2022-12-11T04:50:15.035Z,7.80
2022-12-11T04:52:45.131Z,8.30
2022-12-11T04:55:13.619Z,7.70
2022-12-11T04:57:42.861Z,7.00
2022-12-11T05:00:13.226Z,7.70
2022-12-11T05:02:44.800Z,8.30
2022-12-11T05:05:15.411Z,8.00
2022-12-11T05:07:45.341Z,8.40
2022-12-11T05:10:13.208Z,8.80
2022-12-11T05:12:41.290Z,7.90
2022-12-11T05:15:11.439Z,7.80
2022-12-11T05:17:41.601Z,7.90
2022-12-11T05:20:11.963Z,7.70
2022-12-11T05:22:40.012Z,7.50
2022-12-11T05:25:11.216Z,7.80
2022-12-11T05:27:39.377Z,7.60
2022-12-11T05:30:10.698Z,7.70
2022-12-11T05:32:38.556Z,8.00
2022-12-11T05:35:08.776Z,7.90
2022-12-11T05:37:38.270Z,9.10
2022-12-11T05:40:08.648Z,9.00
2022-12-11T05:42:36.717Z,8.70
2022-12-11T05:45:06.852Z,9.00
2022-12-11T05:47:34.958Z,8.90
2022-12-11T05:50:02.800Z,9.10
2022-12-11T05:52:33.775Z,7.80
2022-12-11T05:55:01.832Z,8.60
2022-12-11T05:57:29.934Z,7.50
2022-12-11T05:59:57.754Z,9.80
2022-12-11T06:02:25.964Z,8.50
2022-12-11T06:04:55.791Z,7.40
2022-12-11T06:07:23.894Z,8.40
2022-12-11T06:09:51.723Z,8.50
2022-12-11T06:12:19.549Z,8.00
2022-12-11T06:14:49.152Z,9.00
2022-12-11T06:17:17.090Z,7.90
2022-12-11T06:19:44.922Z,8.60
2022-12-11T06:22:12.983Z,8.30
2022-12-11T06:24:40.991Z,9.30
2022-12-11T06:27:11.270Z,8.00
2022-12-11T06:29:41.343Z,7.30
2022-12-11T06:32:09.467Z,8.20
2022-12-11T06:34:37.519Z,9.30
2022-12-11T06:37:05.633Z,8.40
2022-12-11T06:39:33.662Z,8.70
2022-12-11T06:42:01.718Z,7.60
2022-12-11T06:44:29.505Z,8.10
2022-12-11T06:46:57.591Z,8.20
2022-12-11T06:49:25.458Z,8.10
2022-12-11T06:51:53.554Z,8.90
2022-12-11T06:54:27.780Z,8.20
2022-12-11T06:56:55.960Z,8.50
2022-12-11T06:59:24.108Z,8.60
2022-12-11T07:01:52.298Z,9.90
2022-12-11T07:04:26.593Z,9.20
2022-12-11T07:06:56.570Z,7.90
2022-12-11T07:09:26.562Z,7.90
2022-12-11T07:11:54.598Z,8.60
2022-12-11T07:14:22.429Z,8.00
2022-12-11T07:16:50.344Z,8.50
2022-12-11T07:19:19.956Z,8.70
2022-12-11T07:21:50.872Z,9.30
2022-12-11T07:24:20.842Z,9.20
2022-12-11T07:26:48.744Z,10.00
2022-12-11T07:29:16.681Z,10.40
2022-12-11T07:31:44.796Z,10.90
2022-12-11T07:34:15.195Z,9.20
2022-12-11T07:36:44.928Z,9.80
2022-12-11T07:39:13.921Z,9.70
2022-12-11T07:41:41.982Z,10.40
2022-12-11T07:44:10.066Z,10.30
2022-12-11T07:46:40.286Z,9.30
2022-12-11T07:49:08.386Z,9.80
2022-12-11T07:51:39.247Z,9.60
2022-12-11T07:54:16.725Z,10.00
2022-12-11T07:56:53.212Z,10.40
2022-12-11T07:59:23.830Z,11.00
2022-12-11T08:01:51.671Z,11.40
2022-12-11T08:04:19.549Z,10.30
2022-12-11T08:06:48.016Z,9.40
2022-12-11T08:09:21.087Z,10.90
2022-12-11T08:11:51.174Z,10.00
2022-12-11T08:14:19.911Z,9.30
2022-12-11T08:16:51.021Z,10.00
2022-12-11T08:19:19.254Z,9.50
2022-12-11T08:21:49.734Z,9.90
2022-12-11T08:24:21.116Z,9.50
2022-12-11T08:26:51.610Z,9.90
2022-12-11T08:29:22.136Z,10.50
2022-12-11T08:31:52.624Z,10.10
2022-12-11T08:34:20.479Z,10.80
2022-12-11T08:36:48.356Z,10.80
2022-12-11T08:39:16.263Z,10.30
2022-12-11T08:41:44.333Z,11.90
2022-12-11T08:44:16.567Z,10.10
2022-12-11T08:46:47.142Z,9.90
2022-12-11T08:49:19.539Z,10.60
2022-12-11T08:51:47.576Z,10.40
2022-12-11T08:54:16.673Z,11.40
2022-12-11T08:56:44.646Z,12.40
2022-12-11T08:59:15.166Z,12.50
2022-12-11T09:01:43.363Z,12.10
2022-12-11T09:04:13.519Z,13.10
2022-12-11T09:06:41.666Z,11.50
2022-12-11T09:09:09.704Z,11.80
2022-12-11T09:11:40.437Z,13.50
2022-12-11T09:14:11.179Z,14.10
2022-12-11T09:16:42.606Z,14.00
2022-12-11T09:21:45.775Z,13.50
2022-12-11T09:24:16.317Z,15.70
2022-12-11T09:26:44.630Z,14.80
2022-12-11T09:29:16.085Z,16.10
2022-12-11T09:31:44.678Z,15.30
2022-12-11T09:34:15.812Z,15.30
2022-12-11T09:36:44.826Z,15.90
2022-12-11T09:39:17.595Z,16.90
2022-12-11T09:42:16.096Z,17.00
2022-12-11T09:44:59.815Z,16.10
2022-12-11T09:47:43.295Z,17.20
2022-12-11T09:50:20.223Z,19.20
2022-12-11T09:53:10.915Z,19.00
2022-12-11T09:55:57.762Z,16.50
2022-12-11T09:58:50.272Z,18.80
2022-12-11T10:01:43.294Z,19.60
2022-12-11T10:04:31.716Z,18.90
2022-12-11T10:07:25.399Z,17.40
2022-12-11T10:10:30.805Z,14.40
2022-12-11T10:13:17.967Z,18.30
2022-12-11T10:16:24.685Z,16.70
2022-12-11T10:18:56.157Z,17.60
2022-12-11T10:21:29.304Z,18.30
2022-12-11T10:24:04.786Z,17.50
2022-12-11T10:26:32.955Z,17.10
2022-12-11T10:29:06.456Z,15.80
2022-12-11T10:31:46.735Z,17.90
2022-12-11T10:34:37.789Z,16.40
2022-12-11T10:37:06.880Z,17.60
2022-12-11T10:39:39.050Z,17.10
2022-12-11T10:42:19.653Z,15.70
2022-12-11T10:45:05.523Z,18.10
2022-12-11T10:47:37.226Z,17.90
2022-12-11T10:50:08.333Z,16.50
2022-12-11T10:52:44.460Z,16.40
2022-12-11T10:55:29.555Z,16.00
2022-12-11T10:58:05.379Z,17.70
2022-12-11T11:00:39.829Z,17.60
2022-12-11T11:03:23.961Z,16.70
2022-12-11T11:06:06.993Z,15.70
2022-12-11T11:08:49.095Z,14.80
2022-12-11T11:11:28.427Z,17.70
2022-12-11T11:14:14.490Z,15.80
2022-12-11T11:16:48.303Z,17.00
2022-12-11T11:19:27.013Z,15.50
2022-12-11T11:22:05.984Z,16.40
2022-12-11T11:24:47.152Z,15.80
2022-12-11T11:27:36.562Z,16.70
2022-12-11T11:30:22.226Z,16.50
2022-12-11T11:33:13.561Z,16.70
2022-12-11T11:36:04.940Z,15.40
2022-12-11T11:38:48.065Z,14.30
2022-12-11T11:41:42.758Z,14.40
2022-12-11T11:44:17.688Z,15.20
2022-12-11T11:46:58.619Z,15.00
2022-12-11T11:49:32.854Z,14.80
2022-12-11T11:52:20.302Z,14.10
2022-12-11T11:54:54.434Z,13.90
2022-12-11T11:57:43.616Z,14.00
2022-12-11T12:00:31.895Z,13.90
2022-12-11T12:03:14.007Z,13.40
2022-12-11T12:06:15.100Z,13.50
2022-12-11T12:09:13.895Z,14.10
2022-12-11T12:11:46.898Z,14.00
2022-12-11T12:14:51.114Z,12.20
2022-12-11T12:17:36.327Z,13.40
2022-12-11T12:20:25.922Z,14.50
2022-12-11T12:22:56.953Z,14.90
2022-12-11T12:25:35.103Z,15.60
2022-12-11T12:28:14.444Z,13.80
2022-12-11T12:30:51.902Z,14.90
2022-12-11T12:33:38.444Z,15.10
2022-12-11T12:36:30.936Z,16.50
2022-12-11T12:39:15.486Z,14.70
2022-12-11T12:41:50.836Z,13.60
2022-12-11T12:44:25.528Z,14.90
2022-12-11T12:47:05.085Z,14.50
2022-12-11T12:49:45.048Z,14.70
2022-12-11T12:52:35.956Z,13.00
2022-12-11T12:55:31.837Z,15.80
2022-12-11T12:58:04.357Z,18.10
2022-12-11T13:00:41.284Z,16.60
2022-12-11T13:03:22.549Z,14.00
2022-12-11T13:06:04.717Z,15.10
2022-12-11T13:08:52.733Z,13.60
2022-12-11T13:11:34.969Z,17.60
2022-12-11T13:14:08.042Z,16.00
2022-12-11T13:17:04.540Z,13.00
2022-12-11T13:19:42.613Z,14.00
2022-12-11T13:22:14.617Z,13.60
2022-12-11T13:25:24.260Z,15.00
2022-12-11T13:28:11.723Z,16.30
2022-12-11T13:30:39.584Z,15.80
2022-12-11T13:33:17.822Z,15.20
2022-12-11T13:35:45.724Z,15.30
2022-12-11T13:38:21.654Z,16.50
2022-12-11T13:40:59.267Z,15.50
2022-12-11T13:43:33.252Z,17.70
2022-12-11T13:46:07.179Z,17.60
2022-12-11T13:48:51.380Z,18.20
2022-12-11T13:51:27.481Z,13.70
2022-12-11T13:54:17.977Z,15.80
2022-12-11T13:57:01.604Z,15.50
2022-12-11T13:59:34.049Z,17.40
2022-12-11T14:02:39.128Z,15.80
2022-12-11T14:05:12.300Z,15.00
2022-12-11T14:07:49.811Z,13.60
2022-12-11T14:10:24.835Z,14.40
2022-12-11T14:13:21.029Z,14.90
2022-12-11T14:15:49.456Z,13.80
2022-12-11T14:18:24.667Z,14.50
2022-12-11T14:21:06.450Z,14.80
2022-12-11T14:23:39.323Z,13.60
2022-12-11T14:26:28.728Z,13.60
2022-12-11T14:28:59.783Z,16.00
2022-12-11T14:31:38.009Z,13.30
2022-12-11T14:34:24.035Z,16.30
2022-12-11T14:36:55.279Z,15.60
2022-12-11T14:39:29.440Z,14.60
2022-12-11T14:42:07.931Z,14.30
2022-12-11T14:44:50.474Z,15.80
2022-12-11T14:47:43.704Z,12.50
2022-12-11T14:50:22.805Z,15.10
2022-12-11T14:53:03.144Z,14.70
2022-12-11T14:55:35.647Z,14.00
2022-12-11T14:58:28.639Z,14.20
2022-12-11T15:01:11.266Z,13.80
2022-12-11T15:03:43.754Z,15.00
2022-12-11T15:06:35.119Z,13.10
2022-12-11T15:09:26.285Z,17.60
2022-12-11T15:12:10.390Z,17.40
2022-12-11T15:14:54.610Z,17.90
2022-12-11T15:17:26.437Z,16.30
2022-12-11T15:20:29.915Z,13.30
2022-12-11T15:23:02.312Z,14.20
2022-12-11T15:25:34.863Z,12.80
2022-12-11T15:28:02.785Z,15.30
2022-12-11T15:30:35.916Z,13.70
2022-12-11T15:33:10.019Z,13.60
2022-12-11T15:35:55.876Z,12.60
2022-12-11T15:38:40.709Z,13.30
2022-12-11T15:41:21.009Z,12.10
2022-12-11T15:43:51.728Z,14.10
2022-12-11T15:46:27.342Z,15.50
2022-12-11T15:48:59.232Z,14.00
2022-12-11T15:51:30.901Z,13.40
2022-12-11T15:53:58.721Z,13.00
2022-12-11T15:56:26.729Z,13.70
2022-12-11T15:59:06.927Z,15.00
2022-12-11T16:01:38.200Z,14.10
2022-12-11T16:04:06.066Z,14.30
2022-12-11T16:06:38.102Z,16.30
2022-12-11T16:09:05.955Z,16.10
2022-12-11T16:11:33.998Z,19.50
2022-12-11T16:14:05.704Z,18.30
2022-12-11T16:16:36.282Z,17.60
2022-12-11T16:19:04.364Z,19.10
2022-12-11T16:21:32.472Z,17.10
2022-12-11T16:24:02.132Z,20.10
2022-12-11T16:26:30.195Z,17.40
2022-12-11T16:28:58.091Z,19.00
2022-12-11T16:31:25.998Z,21.30
2022-12-11T16:33:57.518Z,19.60
2022-12-11T16:36:25.435Z,17.20
2022-12-11T16:38:54.332Z,17.30
2022-12-11T16:41:26.103Z,17.70
2022-12-11T16:43:57.894Z,15.90
2022-12-11T16:46:26.096Z,19.00
2022-12-11T16:48:57.622Z,18.80
2022-12-11T16:51:25.552Z,22.00
2022-12-11T16:53:53.625Z,17.30
2022-12-11T16:56:21.492Z,17.20
2022-12-11T16:58:53.348Z,19.20
2022-12-11T17:01:21.382Z,17.10
2022-12-11T17:03:49.511Z,17.90
2022-12-11T17:06:24.013Z,17.50
2022-12-11T17:08:55.959Z,18.00
2022-12-11T17:11:27.923Z,17.20
2022-12-11T17:14:00.767Z,19.00
2022-12-11T17:16:34.040Z,17.60
2022-12-11T17:19:06.940Z,17.40
2022-12-11T17:21:38.761Z,19.40
2022-12-11T17:24:11.606Z,17.90
2022-12-11T17:26:45.803Z,19.30
2022-12-11T17:29:17.058Z,21.00
2022-12-11T17:31:48.505Z,18.00
2022-12-11T17:34:16.543Z,19.40
2022-12-11T17:36:44.395Z,19.60
2022-12-11T17:39:16.692Z,19.70
2022-12-11T17:41:45.512Z,20.40
2022-12-11T17:44:13.376Z,20.80
2022-12-11T17:46:41.300Z,20.90
2022-12-11T17:49:11.464Z,19.60
2022-12-11T17:51:39.571Z,19.20
2022-12-11T17:54:07.444Z,22.50
2022-12-11T17:56:40.114Z,19.90
2022-12-11T17:59:08.247Z,23.10
2022-12-11T18:01:37.578Z,20.80
2022-12-11T18:04:06.740Z,21.70
2022-12-11T18:06:35.721Z,22.80
2022-12-11T18:09:08.045Z,22.40
2022-12-11T18:11:35.943Z,20.00
2022-12-11T18:14:11.104Z,24.80
2022-12-11T18:16:49.564Z,22.70
2022-12-11T18:19:17.637Z,22.80
2022-12-11T18:21:50.125Z,25.30
2022-12-11T18:24:22.202Z,23.50
2022-12-11T18:26:50.382Z,22.80
2022-12-11T18:29:18.700Z,25.30
2022-12-11T18:31:46.933Z,24.10
2022-12-11T18:34:17.974Z,24.40
2022-12-11T18:36:49.899Z,23.50
2022-12-11T18:39:21.769Z,22.60
2022-12-11T18:42:23.881Z,23.60
2022-12-11T18:44:40.759Z,24.90
2022-12-11T18:47:11.171Z,21.90
2022-12-11T18:49:39.406Z,22.80
2022-12-11T18:52:08.087Z,22.60
2022-12-11T18:54:40.961Z,23.50
2022-12-11T18:57:12.662Z,22.90
2022-12-11T18:59:40.539Z,22.80
2022-12-11T19:02:16.507Z,23.90
2022-12-11T19:04:48.487Z,22.80
2022-12-11T19:07:16.326Z,23.90
2022-12-11T19:09:48.089Z,20.80
2022-12-11T19:12:19.551Z,22.40
2022-12-11T19:14:47.634Z,20.40
2022-12-11T19:17:15.711Z,21.20
2022-12-11T19:19:50.082Z,21.10
2022-12-11T19:22:18.258Z,19.80
2022-12-11T19:24:46.374Z,20.10
2022-12-11T19:27:14.443Z,20.80
2022-12-11T19:29:42.343Z,19.00
2022-12-11T19:32:12.791Z,18.50
2022-12-11T19:34:42.522Z,19.90
2022-12-11T19:37:10.630Z,19.10
2022-12-11T19:39:42.805Z,19.60
2022-12-11T19:42:10.714Z,20.40
2022-12-11T19:44:43.185Z,18.90
2022-12-11T19:47:11.287Z,15.40
2022-12-11T19:49:39.147Z,19.10
2022-12-11T19:52:07.034Z,19.10
2022-12-11T19:54:39.353Z,19.80
2022-12-11T19:57:07.182Z,20.20
2022-12-11T19:59:37.517Z,19.30
2022-12-11T20:02:05.431Z,19.10
2022-12-11T20:04:35.502Z,18.50
2022-12-11T20:07:05.400Z,18.60
2022-12-11T20:09:38.123Z,19.90
2022-12-11T20:12:10.495Z,18.70
2022-12-11T20:14:41.277Z,21.30
2022-12-11T20:17:14.474Z,19.10
2022-12-11T20:19:43.314Z,20.20
2022-12-11T20:22:12.668Z,19.20
2022-12-11T20:24:45.792Z,21.30
2022-12-11T20:27:13.872Z,21.10
2022-12-11T20:29:42.012Z,21.20
2022-12-11T20:32:15.693Z,23.00
2022-12-11T20:37:16.192Z,23.60
2022-12-11T20:39:48.481Z,21.50
2022-12-11T20:42:16.869Z,22.00
2022-12-11T20:44:49.824Z,26.10
2022-12-11T20:47:22.531Z,22.50
2022-12-11T20:49:55.257Z,22.90
2022-12-11T20:52:24.881Z,21.60
2022-12-11T20:54:53.014Z,23.00
2022-12-11T20:57:23.844Z,22.30
2022-12-11T20:59:51.723Z,19.60
2022-12-11T21:02:24.192Z,23.40
2022-12-11T21:04:59.479Z,21.00
2022-12-11T21:07:27.303Z,22.00
2022-12-11T21:09:55.344Z,22.70
2022-12-11T21:12:31.338Z,20.10
2022-12-11T21:15:00.943Z,22.60
2022-12-11T21:17:31.682Z,23.60
2022-12-11T21:19:59.564Z,21.90
2022-12-11T21:22:32.974Z,22.50
2022-12-11T21:25:05.655Z,24.60
2022-12-11T21:27:38.025Z,24.90
2022-12-11T21:30:10.747Z,24.80
2022-12-11T21:32:43.307Z,22.10
2022-12-11T21:35:16.520Z,24.50
2022-12-11T21:37:44.620Z,24.70
2022-12-11T21:40:15.480Z,26.10
2022-12-11T21:42:43.327Z,23.30
2022-12-11T21:48:01.305Z,25.70
2022-12-11T21:50:29.430Z,26.90
2022-12-11T21:52:57.725Z,24.70
2022-12-11T21:55:25.913Z,27.30
2022-12-11T21:57:59.418Z,25.00
2022-12-11T22:00:28.472Z,25.70
2022-12-11T22:02:56.382Z,24.40
2022-12-11T22:05:24.451Z,24.40
2022-12-11T22:07:52.476Z,25.30
2022-12-11T22:10:20.491Z,24.60
2022-12-11T22:12:48.968Z,25.20
2022-12-11T22:15:16.844Z,25.60
2022-12-11T22:17:44.805Z,24.40
2022-12-11T22:20:13.181Z,22.20
2022-12-11T22:22:41.151Z,22.80
2022-12-11T22:25:10.045Z,23.70
2022-12-11T22:27:38.332Z,23.30
2022-12-11T22:30:07.263Z,24.90
2022-12-11T22:32:35.147Z,23.20
2022-12-11T22:35:04.098Z,25.20
2022-12-11T22:37:32.036Z,23.90
2022-12-11T22:40:00.134Z,23.40
2022-12-11T22:42:28.081Z,22.80
2022-12-11T22:44:56.247Z,24.00
2022-12-11T22:47:24.215Z,25.70
2022-12-11T22:49:52.051Z,24.50
2022-12-11T22:52:19.949Z,26.00
2022-12-11T22:54:47.862Z,27.20
2022-12-11T22:57:15.905Z,25.60
2022-12-11T22:59:43.831Z,25.70
2022-12-11T23:02:12.181Z,29.10
2022-12-11T23:04:40.508Z,27.70
2022-12-11T23:07:08.577Z,26.90
2022-12-11T23:09:36.386Z,29.70
2022-12-11T23:12:04.502Z,26.50
2022-12-11T23:14:32.383Z,30.30
2022-12-11T23:17:00.512Z,29.90
2022-12-11T23:19:28.526Z,26.40
2022-12-11T23:21:56.367Z,26.50
2022-12-11T23:24:24.358Z,29.70
2022-12-11T23:26:52.401Z,29.50
2022-12-11T23:29:20.528Z,26.10
2022-12-11T23:31:48.578Z,27.00
2022-12-11T23:34:16.414Z,27.70
2022-12-11T23:36:44.653Z,28.70
2022-12-11T23:39:12.565Z,28.10
2022-12-11T23:41:40.445Z,26.30
2022-12-11T23:44:09.850Z,29.10
2022-12-11T23:46:38.368Z,28.70
2022-12-11T23:49:06.438Z,26.10
2022-12-11T23:51:34.367Z,24.90
2022-12-11T23:54:02.333Z,25.00
2022-12-11T23:56:30.480Z,25.20
2022-12-11T23:58:58.574Z,25.30
